Time;durP1;ratioP1;P1;durP2;ratioP2;P2;SDS_P1;SDS_P2;PMS_P1;PMS_P2;Temp;Humidity;BMP_temperature;BMP_pressure;BME280_temperature;BME280_humidity;BME280_pressure;Samples;Min_cycle;Max_cycle;Signal;HPM_P1;HPM_P2
2023/03/14 00:02:19;;;;;;;;;;;11.80;99.90;;;;;;8387873;28;19932;-72
2023/03/14 00:06:21;;;;;;;;;;;11.70;99.90;;;;;;8390912;28;19925;-72
2023/03/14 00:10:22;;;;;;;;;;;11.70;99.90;;;;;;8388631;28;19924;-73
2023/03/14 00:14:24;;;;;;;;;;;11.70;99.90;;;;;;8386180;28;19928;-72
2023/03/14 00:18:26;;;;;;;;;;;11.70;99.90;;;;;;8401446;28;19967;-72
2023/03/14 00:22:27;;;;;;;;;;;11.70;99.90;;;;;;8378828;28;19940;-72
2023/03/14 00:26:29;;;;;;;;;;;11.70;99.90;;;;;;8381245;28;19964;-72
2023/03/14 00:30:30;;;;;;;;;;;11.60;99.90;;;;;;8403642;28;19943;-72
2023/03/14 00:34:32;;;;;;;;;;;11.60;99.90;;;;;;8379505;28;20066;-72
2023/03/14 00:38:34;;;;;;;;;;;11.40;99.90;;;;;;8387049;28;19970;-72
2023/03/14 00:42:36;;;;;;;;;;;11.30;99.90;;;;;;8378090;28;19936;-72
2023/03/14 00:46:37;;;;;;;;;;;11.40;99.90;;;;;;8368937;28;19932;-72
2023/03/14 00:50:41;;;;;;;;;;;11.40;99.90;;;;;;8391942;28;19956;-72
2023/03/14 00:54:42;;;;;;;;;;;11.40;99.90;;;;;;8386410;28;19939;-72
2023/03/14 00:58:44;;;;;;;;;;;11.30;99.90;;;;;;8382939;28;20402;-72
2023/03/14 01:02:46;;;;;;;;;;;11.20;99.90;;;;;;8393433;28;20371;-72
2023/03/14 01:06:47;;;;;;;;;;;11.10;99.90;;;;;;8382325;28;19978;-72
2023/03/14 01:10:49;;;;;;;;;;;11.00;99.90;;;;;;8374664;28;19931;-72
2023/03/14 01:14:50;;;;;;;;;;;10.90;99.90;;;;;;8386042;28;19924;-72
2023/03/14 01:18:52;;;;;;;;;;;10.60;99.90;;;;;;8379897;28;20372;-72
2023/03/14 01:22:54;;;;;;;;;;;10.40;99.90;;;;;;8390232;28;19931;-72
2023/03/14 01:26:55;;;;;;;;;;;10.10;99.90;;;;;;8390805;28;20333;-72
2023/03/14 01:31:02;;;;;;;;;;;9.90;99.90;;;;;;8390570;28;20015;-72
2023/03/14 01:35:04;;;;;;;;;;;9.70;99.90;;;;;;8389008;28;20384;-71
2023/03/14 01:39:06;;;;;;;;;;;9.70;99.90;;;;;;8389776;28;19929;-72
2023/03/14 01:43:15;;;;;;;;;;;9.60;99.90;;;;;;8384560;28;19929;-72
2023/03/14 01:47:17;;;;;;;;;;;9.60;99.90;;;;;;8391134;28;20031;-72
2023/03/14 01:51:25;;;;;;;;;;;9.60;99.90;;;;;;8384498;28;19925;-71
2023/03/14 01:55:26;;;;;;;;;;;9.60;99.90;;;;;;8380135;28;19931;-72
2023/03/14 01:59:29;;;;;;;;;;;9.60;99.90;;;;;;8384056;28;19933;-72
2023/03/14 02:03:35;;;;;;;;;;;9.60;99.90;;;;;;8403065;28;19924;-71
2023/03/14 02:07:48;;;;;;;;;;;9.60;99.90;;;;;;8382758;28;19932;-72
2023/03/14 02:11:50;;;;;;;;;;;9.60;99.90;;;;;;8378806;28;19960;-72
2023/03/14 02:15:52;;;;;;;;;;;9.50;99.90;;;;;;8392668;28;19924;-72
2023/03/14 02:20:07;;;;;;;;;;;9.50;99.90;;;;;;8381871;28;19946;-71
2023/03/14 02:24:21;;;;;;;;;;;9.50;99.90;;;;;;8376616;28;20165;-72
2023/03/14 02:28:22;;;;;;;;;;;9.50;99.90;;;;;;8389099;28;20007;-72
2023/03/14 02:32:25;;;;;;;;;;;9.50;99.90;;;;;;8394171;28;19932;-72
2023/03/14 02:36:27;;;;;;;;;;;9.50;99.90;;;;;;8391044;28;19971;-71
2023/03/14 02:40:28;;;;;;;;;;;9.50;99.90;;;;;;8382527;28;20413;-72
2023/03/14 02:44:30;;;;;;;;;;;9.50;99.90;;;;;;8393393;28;19931;-72
2023/03/14 02:48:36;;;;;;;;;;;9.50;99.90;;;;;;8369441;28;19924;-72
2023/03/14 02:52:38;;;;;;;;;;;9.50;99.90;;;;;;8384221;28;20371;-72
2023/03/14 02:56:40;;;;;;;;;;;9.50;99.90;;;;;;8387597;28;20015;-72
2023/03/14 03:00:41;;;;;;;;;;;9.50;99.90;;;;;;8378816;28;20403;-72
2023/03/14 03:04:43;;;;;;;;;;;9.50;99.90;;;;;;8384205;28;19932;-72
2023/03/14 03:08:45;;;;;;;;;;;9.50;99.90;;;;;;8387142;28;19924;-72
2023/03/14 03:12:46;;;;;;;;;;;9.50;99.90;;;;;;8364214;28;19931;-71
2023/03/14 03:16:48;;;;;;;;;;;9.50;99.90;;;;;;8389198;28;20402;-72
2023/03/14 03:20:50;;;;;;;;;;;9.50;99.90;;;;;;8377674;28;19951;-72
2023/03/14 03:24:51;;;;;;;;;;;9.60;99.90;;;;;;8389877;28;19939;-72
2023/03/14 03:28:53;;;;;;;;;;;9.60;99.90;;;;;;8380475;28;19980;-72
2023/03/14 03:32:55;;;;;;;;;;;9.60;99.90;;;;;;8387716;28;20280;-72
2023/03/14 03:36:56;;;;;;;;;;;9.60;99.90;;;;;;8384393;28;19972;-72
2023/03/14 03:40:58;;;;;;;;;;;9.70;99.90;;;;;;8382830;28;20326;-72
2023/03/14 03:45:00;;;;;;;;;;;9.70;99.90;;;;;;8388547;28;20376;-72
2023/03/14 03:49:02;;;;;;;;;;;9.70;99.90;;;;;;8383618;28;20043;-72
2023/03/14 03:53:03;;;;;;;;;;;9.80;99.90;;;;;;8399202;28;19928;-72
2023/03/14 04:02:02;;;;;;;;;;;9.90;99.90;;;;;;8383290;28;19951;-72
2023/03/14 04:06:05;;;;;;;;;;;9.90;99.90;;;;;;8381750;28;19939;-72
2023/03/14 04:10:07;;;;;;;;;;;10.00;99.90;;;;;;8392025;28;20565;-72
2023/03/14 04:14:09;;;;;;;;;;;10.00;99.90;;;;;;8390184;28;19928;-72
2023/03/14 04:18:11;;;;;;;;;;;10.00;99.90;;;;;;8367831;28;19931;-71
2023/03/14 04:22:12;;;;;;;;;;;10.00;99.90;;;;;;8382302;28;19979;-72
2023/03/14 04:26:14;;;;;;;;;;;10.10;99.90;;;;;;8388645;28;20289;-72
2023/03/14 04:30:16;;;;;;;;;;;10.10;99.90;;;;;;8370603;28;19932;-72
2023/03/14 04:34:17;;;;;;;;;;;10.10;99.90;;;;;;8376545;28;20373;-72
2023/03/14 04:38:19;;;;;;;;;;;10.10;99.90;;;;;;8386850;28;20352;-71
2023/03/14 04:42:21;;;;;;;;;;;10.10;99.90;;;;;;8378438;28;19932;-72
2023/03/14 04:46:23;;;;;;;;;;;10.10;99.90;;;;;;8394459;28;19929;-72
2023/03/14 04:50:24;;;;;;;;;;;10.10;99.90;;;;;;8362128;28;19962;-72
2023/03/14 04:54:26;;;;;;;;;;;10.10;99.90;;;;;;8373648;28;20613;-72
2023/03/14 04:58:27;;;;;;;;;;;10.10;99.90;;;;;;8378578;28;19936;-72
2023/03/14 05:02:29;;;;;;;;;;;10.10;99.90;;;;;;8388085;28;20399;-72
2023/03/14 05:06:32;;;;;;;;;;;10.10;99.90;;;;;;8385027;28;19944;-72
2023/03/14 05:10:34;;;;;;;;;;;10.00;99.90;;;;;;8387926;28;20070;-73
2023/03/14 05:14:36;;;;;;;;;;;9.90;99.90;;;;;;8390511;28;19924;-72
2023/03/14 05:18:38;;;;;;;;;;;9.80;99.90;;;;;;8390766;28;19991;-72
2023/03/14 05:22:39;;;;;;;;;;;9.80;99.90;;;;;;8374329;28;19932;-72
2023/03/14 05:26:41;;;;;;;;;;;9.70;99.90;;;;;;8389267;28;19924;-72
2023/03/14 05:30:43;;;;;;;;;;;9.60;99.90;;;;;;8396618;28;19939;-72
2023/03/14 05:34:44;;;;;;;;;;;9.60;99.90;;;;;;8383623;28;20392;-71
2023/03/14 05:38:46;;;;;;;;;;;9.50;99.90;;;;;;8380207;28;19960;-72
2023/03/14 05:42:48;;;;;;;;;;;9.40;99.90;;;;;;8384652;28;19935;-72
2023/03/14 05:46:49;;;;;;;;;;;9.40;99.90;;;;;;8386566;28;20394;-71
2023/03/14 05:50:55;;;;;;;;;;;9.40;99.90;;;;;;8392346;28;19948;-72
2023/03/14 05:54:57;;;;;;;;;;;9.40;99.90;;;;;;8390951;28;19925;-71
2023/03/14 05:59:01;;;;;;;;;;;9.30;99.90;;;;;;8378987;28;20335;-71
2023/03/14 06:03:03;;;;;;;;;;;9.30;99.90;;;;;;8381856;28;19924;-71
2023/03/14 06:07:07;;;;;;;;;;;9.30;99.90;;;;;;8390701;28;19951;-71
2023/03/14 06:11:09;;;;;;;;;;;9.30;99.90;;;;;;8392260;28;19929;-72
2023/03/14 06:15:11;;;;;;;;;;;9.30;99.90;;;;;;8382198;28;19932;-71
2023/03/14 06:19:12;;;;;;;;;;;9.30;99.90;;;;;;8389002;28;21116;-71
2023/03/14 06:23:14;;;;;;;;;;;9.30;99.90;;;;;;8367600;28;19932;-72
2023/03/14 06:27:16;;;;;;;;;;;9.40;99.90;;;;;;8382585;28;20015;-71
2023/03/14 06:31:17;;;;;;;;;;;9.40;99.90;;;;;;8369322;28;19960;-72
2023/03/14 06:35:19;;;;;;;;;;;9.40;99.90;;;;;;8390023;28;19932;-71
2023/03/14 06:39:21;;;;;;;;;;;9.40;99.90;;;;;;8383265;28;19925;-72
2023/03/14 06:53:29;;;;;;;;;;;8.80;99.90;;;;;;8392538;28;19983;-71
2023/03/14 06:57:31;;;;;;;;;;;8.60;99.90;;;;;;8387332;28;19925;-71
2023/03/14 07:01:32;;;;;;;;;;;8.50;99.90;;;;;;8401622;28;19928;-71
2023/03/14 07:05:34;;;;;;;;;;;8.40;99.90;;;;;;8390815;28;19936;-71
2023/03/14 07:09:36;;;;;;;;;;;8.30;99.90;;;;;;8386841;28;19933;-71
2023/03/14 07:13:39;;;;;;;;;;;8.30;99.90;;;;;;8381068;28;19924;-71
2023/03/14 07:17:41;;;;;;;;;;;8.20;99.90;;;;;;8384701;28;19979;-71
2023/03/14 07:21:43;;;;;;;;;;;8.20;99.90;;;;;;8374430;28;20392;-71
2023/03/14 07:25:44;;;;;;;;;;;8.10;99.90;;;;;;8382268;28;19924;-71
2023/03/14 07:29:46;;;;;;;;;;;8.10;99.90;;;;;;8380889;28;19925;-72
2023/03/14 07:33:47;;;;;;;;;;;8.10;99.90;;;;;;8362878;28;19925;-71
2023/03/14 07:37:49;;;;;;;;;;;8.10;99.90;;;;;;8374471;28;19932;-71
2023/03/14 07:41:52;;;;;;;;;;;8.00;99.90;;;;;;8363721;28;20372;-71
2023/03/14 07:45:53;;;;;;;;;;;8.00;99.90;;;;;;8372081;28;19932;-71
2023/03/14 07:49:59;;;;;;;;;;;8.00;99.90;;;;;;8383184;28;20307;-71
2023/03/14 07:54:01;;;;;;;;;;;7.90;99.90;;;;;;8374797;28;20384;-71
2023/03/14 07:58:03;;;;;;;;;;;7.90;99.90;;;;;;8370326;28;19925;-71
2023/03/14 08:02:09;;;;;;;;;;;7.90;99.90;;;;;;8377755;28;19967;-71
2023/03/14 08:06:11;;;;;;;;;;;7.90;99.90;;;;;;8380100;28;19978;-71
2023/03/14 08:10:15;;;;;;;;;;;8.00;99.90;;;;;;8382655;28;20398;-71
2023/03/14 08:14:17;;;;;;;;;;;7.90;99.90;;;;;;8389017;28;19979;-71
2023/03/14 08:18:18;;;;;;;;;;;7.90;99.90;;;;;;8373396;28;19924;-71
2023/03/14 08:22:20;;;;;;;;;;;7.80;99.90;;;;;;8372607;28;19978;-71
2023/03/14 08:26:22;;;;;;;;;;;7.70;99.90;;;;;;8374539;28;20287;-71
2023/03/14 08:30:23;;;;;;;;;;;7.60;99.90;;;;;;8381092;28;20015;-71
2023/03/14 08:34:25;;;;;;;;;;;7.50;99.90;;;;;;8375744;28;19929;-71
2023/03/14 08:38:27;;;;;;;;;;;7.30;99.90;;;;;;8368508;28;20372;-71
2023/03/14 08:42:28;;;;;;;;;;;7.20;99.90;;;;;;8361701;28;19925;-71
2023/03/14 08:46:30;;;;;;;;;;;7.10;99.90;;;;;;8366877;28;19924;-71
2023/03/14 08:50:31;;;;;;;;;;;7.10;99.90;;;;;;8373669;28;19924;-71
2023/03/14 08:54:33;;;;;;;;;;;7.00;99.90;;;;;;8378917;28;19971;-71
2023/03/14 08:58:37;;;;;;;;;;;7.00;99.90;;;;;;8371840;28;19958;-71
2023/03/14 09:02:39;;;;;;;;;;;7.10;99.90;;;;;;8367862;28;20401;-71
2023/03/14 09:06:40;;;;;;;;;;;7.20;99.90;;;;;;8375171;28;19932;-71
2023/03/14 09:10:42;;;;;;;;;;;7.30;99.90;;;;;;8365976;28;20018;-71
2023/03/14 09:14:44;;;;;;;;;;;7.40;99.90;;;;;;8367957;28;20400;-71
2023/03/14 09:18:45;;;;;;;;;;;7.50;99.90;;;;;;8372510;28;19931;-71
2023/03/14 09:22:47;;;;;;;;;;;7.50;99.90;;;;;;8387979;28;20002;-71
2023/03/14 09:26:49;;;;;;;;;;;7.50;99.90;;;;;;8376745;28;20023;-71
2023/03/14 09:30:51;;;;;;;;;;;7.50;99.90;;;;;;8388084;28;19966;-72
2023/03/14 09:34:52;;;;;;;;;;;7.60;99.90;;;;;;8373376;28;19932;-71
2023/03/14 09:38:54;;;;;;;;;;;7.50;99.90;;;;;;8396652;28;19936;-72
2023/03/14 09:42:55;;;;;;;;;;;7.60;99.90;;;;;;8384759;28;19956;-71
2023/03/14 09:47:00;;;;;;;;;;;7.60;99.90;;;;;;8364967;28;19931;-71
2023/03/14 09:51:07;;;;;;;;;;;7.60;99.90;;;;;;8363113;28;19925;-72
2023/03/14 09:55:12;;;;;;;;;;;7.70;99.90;;;;;;8377166;28;19930;-71
2023/03/14 09:59:14;;;;;;;;;;;7.80;99.90;;;;;;8373617;28;20343;-71
2023/03/14 10:03:25;;;;;;;;;;;7.80;99.90;;;;;;8388441;28;20395;-71
2023/03/14 10:07:31;;;;;;;;;;;7.80;99.90;;;;;;8378791;28;20111;-71
2023/03/14 10:11:32;;;;;;;;;;;7.90;99.90;;;;;;8394303;28;19928;-72
2023/03/14 10:15:34;;;;;;;;;;;8.20;99.90;;;;;;8387856;28;20059;-72
2023/03/14 10:19:36;;;;;;;;;;;8.40;99.90;;;;;;8367592;28;19936;-71
2023/03/14 10:23:38;;;;;;;;;;;8.40;99.90;;;;;;8377777;28;19957;-71
2023/03/14 10:27:40;;;;;;;;;;;8.10;99.90;;;;;;8397679;28;19970;-71
2023/03/14 10:31:46;;;;;;;;;;;7.70;99.90;;;;;;8385795;28;19929;-71
2023/03/14 10:36:14;;;;;;;;;;;7.20;99.90;;;;;;8393029;28;19925;-71
2023/03/14 10:40:25;;;;;;;;;;;6.90;99.90;;;;;;8385960;28;19931;-71
2023/03/14 10:44:28;;;;;;;;;;;7.00;99.90;;;;;;8391186;28;19925;-72
2023/03/14 10:48:34;;;;;;;;;;;7.20;99.90;;;;;;8372479;28;19928;-74
2023/03/14 10:52:46;;;;;;;;;;;7.60;99.90;;;;;;8386670;28;20023;-72
2023/03/14 10:57:04;;;;;;;;;;;7.80;99.90;;;;;;8393187;28;20369;-72
2023/03/14 11:01:13;;;;;;;;;;;8.10;99.90;;;;;;8375617;28;19935;-72
2023/03/14 11:05:24;;;;;;;;;;;8.20;99.90;;;;;;8378733;28;19925;-72
2023/03/14 11:09:44;;;;;;;;;;;8.10;99.90;;;;;;8393113;28;19924;-72
2023/03/14 11:14:08;;;;;;;;;;;7.90;99.90;;;;;;8377550;28;19930;-72
2023/03/14 11:18:19;;;;;;;;;;;7.70;99.90;;;;;;8375218;28;19929;-72
2023/03/14 11:22:20;;;;;;;;;;;7.80;99.90;;;;;;8391389;28;19932;-72
2023/03/14 11:26:57;;;;;;;;;;;7.90;99.90;;;;;;8399834;28;20390;-72
2023/03/14 11:31:04;;;;;;;;;;;7.90;99.90;;;;;;8335142;28;19929;-72
2023/03/14 11:35:15;;;;;;;;;;;8.10;99.90;;;;;;8395793;28;19924;-72
2023/03/14 11:39:18;;;;;;;;;;;8.50;99.90;;;;;;8388059;28;19925;-72
2023/03/14 11:43:24;;;;;;;;;;;9.60;99.90;;;;;;8361420;28;19954;-72
2023/03/14 11:47:29;;;;;;;;;;;10.70;99.90;;;;;;8371269;28;20031;-72
2023/03/14 11:51:36;;;;;;;;;;;10.90;99.90;;;;;;8370079;28;19928;-72
2023/03/14 11:55:40;;;;;;;;;;;11.00;99.90;;;;;;8367876;28;19937;-72
2023/03/14 11:59:47;;;;;;;;;;;11.40;99.90;;;;;;8363824;28;20018;-73
2023/03/14 12:04:09;;;;;;;;;;;11.40;99.90;;;;;;8357030;28;19924;-72
2023/03/14 12:08:30;;;;;;;;;;;11.70;99.90;;;;;;8368220;28;19975;-72
2023/03/14 12:12:31;;;;;;;;;;;12.30;99.90;;;;;;8365065;28;19929;-72
2023/03/14 12:16:35;;;;;;;;;;;13.00;99.90;;;;;;8361318;28;19941;-72
2023/03/14 12:20:39;;;;;;;;;;;13.30;99.90;;;;;;8358684;28;19930;-72
2023/03/14 12:24:45;;;;;;;;;;;13.00;99.90;;;;;;8357150;28;19967;-72
2023/03/14 12:28:50;;;;;;;;;;;12.90;99.90;;;;;;8361857;28;19924;-72
2023/03/14 12:33:09;;;;;;;;;;;12.80;99.90;;;;;;8371296;28;19932;-72
2023/03/14 12:37:17;;;;;;;;;;;12.90;99.90;;;;;;8385072;28;19928;-73
2023/03/14 12:41:19;;;;;;;;;;;12.90;99.90;;;;;;8371430;28;19924;-73
2023/03/14 12:45:29;;;;;;;;;;;13.20;99.90;;;;;;8382329;28;19928;-72
2023/03/14 12:49:32;;;;;;;;;;;13.70;99.90;;;;;;8375656;28;19979;-73
2023/03/14 12:53:52;;;;;;;;;;;14.30;99.90;;;;;;8360839;28;19936;-72
2023/03/14 12:57:58;;;;;;;;;;;14.50;99.90;;;;;;8345315;28;19968;-73
2023/03/14 13:02:06;;;;;;;;;;;14.10;99.90;;;;;;8356904;28;20281;-72
2023/03/14 13:06:08;;;;;;;;;;;13.60;99.90;;;;;;8363649;28;19924;-72
2023/03/14 13:10:10;;;;;;;;;;;13.20;99.90;;;;;;8369734;28;19933;-72
2023/03/14 13:14:13;;;;;;;;;;;13.00;99.90;;;;;;8371302;28;19968;-72
2023/03/14 13:18:16;;;;;;;;;;;12.70;99.90;;;;;;8370695;28;19939;-73
2023/03/14 13:22:25;;;;;;;;;;;12.50;99.90;;;;;;8366085;28;19968;-73
2023/03/14 13:26:42;;;;;;;;;;;12.50;99.90;;;;;;8359918;28;19979;-73
2023/03/14 13:30:45;;;;;;;;;;;12.30;99.90;;;;;;8344150;28;20329;-72
2023/03/14 13:34:48;;;;;;;;;;;12.00;99.90;;;;;;8363091;28;20323;-72
2023/03/14 13:38:55;;;;;;;;;;;11.60;99.90;;;;;;8369131;28;20343;-72
2023/03/14 13:43:02;;;;;;;;;;;11.40;99.90;;;;;;8372923;28;19929;-73
2023/03/14 13:47:05;;;;;;;;;;;11.30;99.90;;;;;;8362187;28;22546;-72
2023/03/14 13:51:09;;;;;;;;;;;11.30;99.90;;;;;;8373179;28;19924;-73
2023/03/14 13:55:16;;;;;;;;;;;11.30;99.90;;;;;;8365553;28;19925;-72
2023/03/14 13:59:21;;;;;;;;;;;11.20;99.90;;;;;;8380654;28;19955;-72
2023/03/14 14:03:23;;;;;;;;;;;11.00;99.90;;;;;;8374927;28;19967;-73
2023/03/14 14:07:24;;;;;;;;;;;11.20;99.90;;;;;;8374280;28;19963;-72
2023/03/14 14:11:38;;;;;;;;;;;11.60;99.90;;;;;;8374607;28;19977;-73
2023/03/14 14:15:52;;;;;;;;;;;11.70;99.90;;;;;;8372592;28;19931;-73
2023/03/14 14:19:56;;;;;;;;;;;11.60;99.90;;;;;;8359290;28;19924;-72
2023/03/14 14:23:58;;;;;;;;;;;11.60;99.90;;;;;;8363524;28;20426;-73
2023/03/14 14:28:15;;;;;;;;;;;11.50;99.90;;;;;;8372692;28;19931;-72
2023/03/14 14:32:17;;;;;;;;;;;11.10;99.90;;;;;;8374981;28;19928;-72
2023/03/14 14:36:21;;;;;;;;;;;10.70;99.90;;;;;;8373460;28;19940;-73
2023/03/14 14:40:24;;;;;;;;;;;10.40;99.90;;;;;;8373332;28;20774;-72
2023/03/14 14:44:34;;;;;;;;;;;10.20;99.90;;;;;;8352150;28;19960;-72
2023/03/14 14:48:36;;;;;;;;;;;9.90;99.90;;;;;;8352643;28;20019;-72
2023/03/14 14:52:42;;;;;;;;;;;9.70;99.90;;;;;;8361915;28;20376;-73
2023/03/14 14:56:48;;;;;;;;;;;9.50;99.90;;;;;;8374949;28;20001;-72
2023/03/14 15:00:52;;;;;;;;;;;9.50;99.90;;;;;;8363015;28;20338;-72
2023/03/14 15:04:54;;;;;;;;;;;9.40;99.90;;;;;;8371477;28;19932;-73
2023/03/14 15:08:56;;;;;;;;;;;9.40;99.90;;;;;;8346146;28;19975;-72
2023/03/14 15:12:58;;;;;;;;;;;9.40;99.90;;;;;;8374749;28;19932;-73
2023/03/14 15:17:00;;;;;;;;;;;9.40;99.90;;;;;;8355966;28;19931;-73
2023/03/14 15:21:01;;;;;;;;;;;9.40;99.90;;;;;;8374024;28;19964;-72
2023/03/14 15:25:03;;;;;;;;;;;9.30;99.90;;;;;;8370664;28;20016;-72
2023/03/14 15:29:07;;;;;;;;;;;9.20;99.90;;;;;;8362632;28;20414;-72
2023/03/14 15:33:09;;;;;;;;;;;9.20;99.90;;;;;;8364576;28;19944;-72
2023/03/14 15:37:12;;;;;;;;;;;9.20;99.90;;;;;;8363397;28;19928;-72
2023/03/14 15:41:15;;;;;;;;;;;9.10;99.30;;;;;;8350013;28;19935;-72
2023/03/14 15:45:17;;;;;;;;;;;8.90;99.70;;;;;;8371020;28;19925;-72
2023/03/14 15:49:18;;;;;;;;;;;8.90;99.90;;;;;;8369687;28;20134;-72
2023/03/14 15:53:20;;;;;;;;;;;8.80;99.90;;;;;;8370679;28;20032;-72
2023/03/14 15:57:21;;;;;;;;;;;8.80;99.90;;;;;;8374357;28;19940;-73
2023/03/14 16:01:23;;;;;;;;;;;8.80;99.90;;;;;;8365360;28;19924;-73
2023/03/14 16:05:25;;;;;;;;;;;8.80;99.90;;;;;;8371619;28;19929;-72
2023/03/14 16:09:26;;;;;;;;;;;8.70;99.90;;;;;;8361582;28;21752;-72
2023/03/14 16:13:28;;;;;;;;;;;8.60;99.90;;;;;;8367475;28;20308;-72
2023/03/14 16:17:30;;;;;;;;;;;8.50;99.30;;;;;;8361641;28;20380;-72
2023/03/14 16:21:33;;;;;;;;;;;8.40;99.90;;;;;;8356146;28;19940;-72
2023/03/14 16:25:34;;;;;;;;;;;8.30;99.90;;;;;;8354638;28;19944;-73
2023/03/14 16:29:36;;;;;;;;;;;8.20;99.90;;;;;;8357580;28;19937;-72
2023/03/14 16:33:38;;;;;;;;;;;8.20;99.90;;;;;;8354855;28;19925;-72
2023/03/14 16:37:39;;;;;;;;;;;8.20;99.90;;;;;;8352550;28;20011;-72
2023/03/14 16:41:41;;;;;;;;;;;8.20;99.90;;;;;;8358891;28;20376;-72
2023/03/14 16:45:43;;;;;;;;;;;8.10;99.90;;;;;;8354949;28;19932;-72
2023/03/14 16:49:44;;;;;;;;;;;8.10;99.90;;;;;;8342198;28;19963;-72
2023/03/14 16:53:46;;;;;;;;;;;8.10;99.90;;;;;;8355370;28;19925;-72
2023/03/14 16:57:48;;;;;;;;;;;8.00;99.90;;;;;;8363750;28;19928;-72
2023/03/14 17:01:50;;;;;;;;;;;8.30;99.90;;;;;;8353889;28;19924;-72
2023/03/14 17:05:52;;;;;;;;;;;8.60;99.90;;;;;;8352500;28;19935;-72
2023/03/14 17:09:53;;;;;;;;;;;8.60;99.90;;;;;;8362526;28;20016;-73
2023/03/14 17:13:55;;;;;;;;;;;8.60;99.90;;;;;;8344593;28;19955;-72
2023/03/14 17:17:56;;;;;;;;;;;8.60;99.90;;;;;;8360881;28;19925;-73
2023/03/14 17:21:58;;;;;;;;;;;8.60;99.90;;;;;;8363636;28;20035;-72
2023/03/14 17:26:20;;;;;;;;;;;8.40;99.90;;;;;;8366438;28;20370;-72
2023/03/14 17:30:21;;;;;;;;;;;8.10;99.90;;;;;;8370170;28;19932;-72
2023/03/14 17:34:23;;;;;;;;;;;7.90;99.90;;;;;;8357648;28;19940;-73
2023/03/14 17:38:26;;;;;;;;;;;7.60;99.90;;;;;;8361727;28;19924;-72
2023/03/14 17:42:28;;;;;;;;;;;7.40;99.90;;;;;;8364525;28;19987;-72
2023/03/14 17:46:30;;;;;;;;;;;7.20;99.90;;;;;;8365624;28;20030;-72
2023/03/14 17:50:31;;;;;;;;;;;7.10;99.90;;;;;;8356994;28;19929;-72
2023/03/14 17:54:33;;;;;;;;;;;6.90;99.90;;;;;;8362765;28;20019;-73
2023/03/14 17:58:37;;;;;;;;;;;6.80;99.90;;;;;;8368775;28;19979;-73
2023/03/14 18:02:40;;;;;;;;;;;6.70;99.90;;;;;;8367660;28;20015;-73
2023/03/14 18:06:43;;;;;;;;;;;6.60;99.90;;;;;;8364478;28;19960;-73
2023/03/14 18:10:45;;;;;;;;;;;6.40;99.90;;;;;;8381180;28;20380;-72
2023/03/14 18:14:46;;;;;;;;;;;6.30;99.90;;;;;;8368100;28;20263;-72
2023/03/14 18:18:49;;;;;;;;;;;6.20;99.90;;;;;;8364950;28;19979;-75
2023/03/14 18:22:50;;;;;;;;;;;6.20;99.90;;;;;;8360648;28;20365;-73
2023/03/14 18:26:52;;;;;;;;;;;6.10;99.90;;;;;;8359128;28;20019;-73
2023/03/14 18:30:59;;;;;;;;;;;6.00;99.90;;;;;;8363165;28;20622;-73
2023/03/14 18:35:01;;;;;;;;;;;6.00;99.90;;;;;;8371107;28;19925;-72
2023/03/14 18:39:05;;;;;;;;;;;5.90;99.90;;;;;;8368904;28;19925;-72
2023/03/14 18:43:07;;;;;;;;;;;5.80;99.90;;;;;;8361209;28;19924;-73
2023/03/14 18:47:09;;;;;;;;;;;5.80;99.90;;;;;;8359147;28;19979;-73
2023/03/14 18:51:11;;;;;;;;;;;5.70;99.90;;;;;;8379567;28;19973;-72
2023/03/14 19:05:20;;;;;;;;;;;5.50;99.90;;;;;;8360197;28;19923;-73
2023/03/14 19:09:21;;;;;;;;;;;5.40;99.90;;;;;;8343612;28;20296;-72
2023/03/14 19:23:31;;;;;;;;;;;5.30;99.90;;;;;;8361388;28;19952;-73
2023/03/14 19:27:33;;;;;;;;;;;5.20;99.90;;;;;;8361068;28;20005;-73
2023/03/14 19:31:34;;;;;;;;;;;5.20;99.90;;;;;;8357085;28;20389;-73
2023/03/14 19:35:36;;;;;;;;;;;5.10;99.90;;;;;;8360133;28;19935;-73
2023/03/14 19:39:38;;;;;;;;;;;5.10;99.90;;;;;;8364443;28;19933;-72
2023/03/14 19:43:40;;;;;;;;;;;5.00;99.90;;;;;;8364329;28;19925;-73
2023/03/14 19:47:41;;;;;;;;;;;4.90;99.90;;;;;;8372305;28;19942;-73
2023/03/14 19:51:43;;;;;;;;;;;4.80;99.90;;;;;;8362575;28;19964;-72
2023/03/14 19:55:45;;;;;;;;;;;4.80;99.90;;;;;;8360254;28;20388;-73
2023/03/14 19:59:47;;;;;;;;;;;4.70;99.90;;;;;;8371612;28;19925;-73
2023/03/14 20:03:48;;;;;;;;;;;4.70;99.90;;;;;;8364526;28;20439;-72
2023/03/14 20:07:50;;;;;;;;;;;4.60;99.90;;;;;;8365964;28;20323;-73
2023/03/14 20:11:52;;;;;;;;;;;4.50;99.90;;;;;;8357771;28;19974;-72
2023/03/14 20:15:54;;;;;;;;;;;4.50;99.90;;;;;;8360410;28;20368;-73
2023/03/14 20:19:57;;;;;;;;;;;4.50;99.90;;;;;;8361269;28;19971;-73
2023/03/14 20:23:58;;;;;;;;;;;4.50;99.90;;;;;;8362622;28;19974;-73
2023/03/14 20:28:00;;;;;;;;;;;4.60;99.90;;;;;;8345725;28;19925;-72
2023/03/14 20:32:04;;;;;;;;;;;4.60;99.90;;;;;;8362726;28;19967;-73
2023/03/14 20:36:06;;;;;;;;;;;4.60;99.90;;;;;;8362756;28;19980;-72
2023/03/14 20:40:10;;;;;;;;;;;4.60;99.90;;;;;;8358398;28;19924;-73
2023/03/14 20:44:12;;;;;;;;;;;4.60;99.90;;;;;;8361629;28;19939;-73
2023/03/14 20:48:14;;;;;;;;;;;4.50;99.90;;;;;;8358907;28;19929;-73
2023/03/14 20:52:15;;;;;;;;;;;4.50;99.90;;;;;;8354652;28;19974;-73
2023/03/14 20:56:17;;;;;;;;;;;4.50;99.90;;;;;;8359638;28;19925;-72
2023/03/14 21:00:19;;;;;;;;;;;4.50;99.90;;;;;;8356758;28;19928;-72
2023/03/14 21:04:20;;;;;;;;;;;4.40;99.90;;;;;;8358291;28;19950;-73
2023/03/14 21:08:23;;;;;;;;;;;4.30;99.90;;;;;;8358704;28;20296;-73
2023/03/14 21:12:24;;;;;;;;;;;4.30;99.90;;;;;;8362253;28;19935;-72
2023/03/14 21:16:26;;;;;;;;;;;4.30;99.90;;;;;;8362265;28;19933;-73
2023/03/14 21:20:28;;;;;;;;;;;4.30;99.90;;;;;;8360393;28;20299;-72
2023/03/14 21:24:29;;;;;;;;;;;4.30;99.90;;;;;;8363120;28;19928;-72
2023/03/14 21:28:31;;;;;;;;;;;4.20;99.90;;;;;;8361203;28;19932;-73
2023/03/14 21:32:33;;;;;;;;;;;4.20;99.90;;;;;;8367426;28;19929;-73
2023/03/14 21:36:34;;;;;;;;;;;4.20;99.90;;;;;;8360531;28;20359;-73
2023/03/14 21:40:36;;;;;;;;;;;4.20;99.90;;;;;;8345248;28;19929;-72
2023/03/14 21:44:40;;;;;;;;;;;4.20;99.90;;;;;;8359172;28;20010;-73
2023/03/14 21:48:42;;;;;;;;;;;4.10;99.90;;;;;;8342244;28;19929;-72
2023/03/14 21:52:46;;;;;;;;;;;4.10;99.90;;;;;;8365653;28;20376;-73
2023/03/14 21:56:48;;;;;;;;;;;4.00;99.90;;;;;;8363065;28;19929;-73
2023/03/14 22:00:49;;;;;;;;;;;4.00;99.90;;;;;;8385249;28;19924;-72
2023/03/14 22:04:53;;;;;;;;;;;4.00;99.90;;;;;;8377667;28;19932;-73
2023/03/14 22:08:55;;;;;;;;;;;4.00;99.90;;;;;;8401400;28;19928;-73
2023/03/14 22:12:56;;;;;;;;;;;4.00;99.90;;;;;;8379787;28;19932;-72
2023/03/14 22:17:02;;;;;;;;;;;4.10;99.90;;;;;;8393372;28;19929;-73
2023/03/14 22:21:04;;;;;;;;;;;4.20;99.90;;;;;;8381083;28;19951;-73
2023/03/14 22:25:06;;;;;;;;;;;4.20;99.90;;;;;;8370314;28;20053;-72
2023/03/14 22:29:07;;;;;;;;;;;4.20;99.90;;;;;;8387675;28;20261;-72
2023/03/14 22:33:11;;;;;;;;;;;4.00;99.90;;;;;;8385990;28;20208;-72
2023/03/14 22:37:15;;;;;;;;;;;3.70;99.90;;;;;;8388414;28;19932;-72
2023/03/14 22:41:17;;;;;;;;;;;3.40;99.90;;;;;;8373213;28;19933;-71
2023/03/14 22:45:19;;;;;;;;;;;3.30;99.90;;;;;;8378976;28;19970;-71
2023/03/14 22:49:21;;;;;;;;;;;3.20;99.90;;;;;;8377972;28;19968;-71
2023/03/14 22:53:22;;;;;;;;;;;3.20;99.90;;;;;;8390318;28;20265;-71
2023/03/14 22:57:24;;;;;;;;;;;3.20;99.90;;;;;;8388335;28;20265;-71
2023/03/14 23:01:25;;;;;;;;;;;3.20;99.90;;;;;;8395775;28;19932;-71
2023/03/14 23:05:27;;;;;;;;;;;3.20;99.90;;;;;;8403222;28;19924;-71
2023/03/14 23:09:30;;;;;;;;;;;3.20;99.90;;;;;;8391815;28;19969;-72
2023/03/14 23:13:32;;;;;;;;;;;3.20;99.90;;;;;;8392066;28;19928;-71
2023/03/14 23:17:34;;;;;;;;;;;3.30;99.90;;;;;;8371336;28;19971;-72
2023/03/14 23:21:35;;;;;;;;;;;3.20;99.90;;;;;;8384380;28;19924;-71
2023/03/14 23:25:37;;;;;;;;;;;3.10;99.90;;;;;;8376872;28;20399;-71
2023/03/14 23:29:53;;;;;;;;;;;2.90;99.90;;;;;;8387745;28;19935;-71
2023/03/14 23:33:54;;;;;;;;;;;2.80;99.90;;;;;;8394006;28;19932;-71
2023/03/14 23:37:56;;;;;;;;;;;2.80;99.90;;;;;;8382487;28;20377;-71
2023/03/14 23:41:57;;;;;;;;;;;2.80;99.90;;;;;;8379059;28;19925;-71
2023/03/14 23:45:59;;;;;;;;;;;2.80;99.90;;;;;;8378002;28;19924;-71
2023/03/14 23:50:01;;;;;;;;;;;2.80;99.90;;;;;;8391204;28;19932;-71
2023/03/14 23:54:02;;;;;;;;;;;2.80;99.90;;;;;;8378908;28;20085;-71
2023/03/14 23:58:04;;;;;;;;;;;2.90;99.90;;;;;;8376644;28;19928;-71
